sensor_id;sensor_type;location;lat;lon;timestamp;temperature;humidity
6538;DHT22;3302;52.508;13.454;2022-08-21T00:01:35;19.60;99.90
6538;DHT22;3302;52.508;13.454;2022-08-21T00:04:08;19.60;99.90
6538;DHT22;3302;52.508;13.454;2022-08-21T00:06:35;19.60;99.90
6538;DHT22;3302;52.508;13.454;2022-08-21T00:09:03;19.60;99.90
6538;DHT22;3302;52.508;13.454;2022-08-21T00:11:30;19.60;99.90
6538;DHT22;3302;52.508;13.454;2022-08-21T00:13:55;19.60;99.90
6538;DHT22;3302;52.508;13.454;2022-08-21T00:16:21;19.60;99.90
6538;DHT22;3302;52.508;13.454;2022-08-21T00:18:48;19.50;99.90
6538;DHT22;3302;52.508;13.454;2022-08-21T00:21:15;19.50;99.90
6538;DHT22;3302;52.508;13.454;2022-08-21T00:23:41;19.50;99.90
6538;DHT22;3302;52.508;13.454;2022-08-21T00:26:07;19.40;99.90
6538;DHT22;3302;52.508;13.454;2022-08-21T00:28:33;19.50;99.90
6538;DHT22;3302;52.508;13.454;2022-08-21T00:31:00;19.40;99.90
6538;DHT22;3302;52.508;13.454;2022-08-21T00:33:26;19.40;99.90
6538;DHT22;3302;52.508;13.454;2022-08-21T00:35:52;19.40;99.90
6538;DHT22;3302;52.508;13.454;2022-08-21T00:38:18;19.40;99.90
6538;DHT22;3302;52.508;13.454;2022-08-21T00:40:52;19.40;99.90
6538;DHT22;3302;52.508;13.454;2022-08-21T00:43:22;19.30;99.90
6538;DHT22;3302;52.508;13.454;2022-08-21T00:45:48;19.40;99.90
6538;DHT22;3302;52.508;13.454;2022-08-21T00:48:15;19.40;99.90
6538;DHT22;3302;52.508;13.454;2022-08-21T00:50:47;19.40;99.90
6538;DHT22;3302;52.508;13.454;2022-08-21T00:53:15;19.30;99.90
6538;DHT22;3302;52.508;13.454;2022-08-21T00:55:41;19.30;99.90
6538;DHT22;3302;52.508;13.454;2022-08-21T00:58:09;19.30;99.90
6538;DHT22;3302;52.508;13.454;2022-08-21T01:00:38;19.30;99.90
6538;DHT22;3302;52.508;13.454;2022-08-21T01:03:12;19.20;99.90
6538;DHT22;3302;52.508;13.454;2022-08-21T01:05:39;19.30;99.90
6538;DHT22;3302;52.508;13.454;2022-08-21T01:08:06;19.20;99.90
6538;DHT22;3302;52.508;13.454;2022-08-21T01:10:33;19.20;99.90
6538;DHT22;3302;52.508;13.454;2022-08-21T01:13:01;19.20;99.90
6538;DHT22;3302;52.508;13.454;2022-08-21T01:15:32;19.20;99.90
6538;DHT22;3302;52.508;13.454;2022-08-21T01:17:59;19.10;99.90
6538;DHT22;3302;52.508;13.454;2022-08-21T01:20:25;19.20;99.90
6538;DHT22;3302;52.508;13.454;2022-08-21T01:22:51;19.20;99.90
6538;DHT22;3302;52.508;13.454;2022-08-21T01:25:18;19.10;99.90
6538;DHT22;3302;52.508;13.454;2022-08-21T01:27:45;19.10;99.90
6538;DHT22;3302;52.508;13.454;2022-08-21T01:30:16;19.10;99.90
6538;DHT22;3302;52.508;13.454;2022-08-21T01:32:42;19.10;99.90
6538;DHT22;3302;52.508;13.454;2022-08-21T01:35:09;19.10;99.90
6538;DHT22;3302;52.508;13.454;2022-08-21T01:37:35;19.10;99.90
6538;DHT22;3302;52.508;13.454;2022-08-21T01:40:02;19.00;99.90
6538;DHT22;3302;52.508;13.454;2022-08-21T01:42:28;19.10;99.90
6538;DHT22;3302;52.508;13.454;2022-08-21T01:44:54;19.00;99.90
6538;DHT22;3302;52.508;13.454;2022-08-21T01:47:19;19.00;99.90
6538;DHT22;3302;52.508;13.454;2022-08-21T01:49:45;19.00;99.90
6538;DHT22;3302;52.508;13.454;2022-08-21T01:52:11;18.90;99.90
6538;DHT22;3302;52.508;13.454;2022-08-21T01:54:38;18.80;99.90
6538;DHT22;3302;52.508;13.454;2022-08-21T01:57:04;18.80;99.90
6538;DHT22;3302;52.508;13.454;2022-08-21T01:59:30;18.80;99.90
6538;DHT22;3302;52.508;13.454;2022-08-21T02:01:56;18.80;99.90
6538;DHT22;3302;52.508;13.454;2022-08-21T02:04:23;18.70;99.90
6538;DHT22;3302;52.508;13.454;2022-08-21T02:06:49;18.80;99.90
6538;DHT22;3302;52.508;13.454;2022-08-21T02:09:15;18.70;99.90
6538;DHT22;3302;52.508;13.454;2022-08-21T02:11:42;18.70;99.90
6538;DHT22;3302;52.508;13.454;2022-08-21T02:14:13;18.70;99.90
6538;DHT22;3302;52.508;13.454;2022-08-21T02:16:42;18.60;99.90
6538;DHT22;3302;52.508;13.454;2022-08-21T02:19:08;18.60;99.90
6538;DHT22;3302;52.508;13.454;2022-08-21T02:21:34;18.60;99.90
6538;DHT22;3302;52.508;13.454;2022-08-21T02:24:00;18.60;99.90
6538;DHT22;3302;52.508;13.454;2022-08-21T02:26:26;18.60;99.90
6538;DHT22;3302;52.508;13.454;2022-08-21T02:28:52;18.50;99.90
6538;DHT22;3302;52.508;13.454;2022-08-21T02:31:18;18.50;99.90
6538;DHT22;3302;52.508;13.454;2022-08-21T02:33:44;18.50;99.90
6538;DHT22;3302;52.508;13.454;2022-08-21T02:36:11;18.40;99.90
6538;DHT22;3302;52.508;13.454;2022-08-21T02:38:39;18.40;99.90
6538;DHT22;3302;52.508;13.454;2022-08-21T02:41:08;18.40;99.90
6538;DHT22;3302;52.508;13.454;2022-08-21T02:43:34;18.40;99.90
6538;DHT22;3302;52.508;13.454;2022-08-21T02:46:03;18.40;99.90
6538;DHT22;3302;52.508;13.454;2022-08-21T02:48:31;18.30;99.90
6538;DHT22;3302;52.508;13.454;2022-08-21T02:51:04;18.30;99.90
6538;DHT22;3302;52.508;13.454;2022-08-21T02:53:31;18.20;99.90
6538;DHT22;3302;52.508;13.454;2022-08-21T02:55:59;18.30;99.90
6538;DHT22;3302;52.508;13.454;2022-08-21T02:58:29;18.30;99.90
6538;DHT22;3302;52.508;13.454;2022-08-21T03:00:55;18.20;99.90
6538;DHT22;3302;52.508;13.454;2022-08-21T03:03:21;18.20;99.90
6538;DHT22;3302;52.508;13.454;2022-08-21T03:05:48;18.30;99.90
6538;DHT22;3302;52.508;13.454;2022-08-21T03:08:15;18.20;99.90
6538;DHT22;3302;52.508;13.454;2022-08-21T03:10:43;18.20;99.90
6538;DHT22;3302;52.508;13.454;2022-08-21T03:13:11;18.10;99.90
6538;DHT22;3302;52.508;13.454;2022-08-21T03:15:37;18.10;99.90
6538;DHT22;3302;52.508;13.454;2022-08-21T03:18:04;18.10;99.90
6538;DHT22;3302;52.508;13.454;2022-08-21T03:20:31;18.00;99.90
6538;DHT22;3302;52.508;13.454;2022-08-21T03:22:59;18.10;99.90
6538;DHT22;3302;52.508;13.454;2022-08-21T03:25:26;18.10;99.90
6538;DHT22;3302;52.508;13.454;2022-08-21T03:27:52;18.10;99.90
6538;DHT22;3302;52.508;13.454;2022-08-21T03:30:19;18.00;99.90
6538;DHT22;3302;52.508;13.454;2022-08-21T03:32:47;18.00;99.90
6538;DHT22;3302;52.508;13.454;2022-08-21T03:35:13;18.00;99.90
6538;DHT22;3302;52.508;13.454;2022-08-21T03:37:40;17.90;99.90
6538;DHT22;3302;52.508;13.454;2022-08-21T03:40:07;17.90;99.90
6538;DHT22;3302;52.508;13.454;2022-08-21T03:42:33;17.90;99.90
6538;DHT22;3302;52.508;13.454;2022-08-21T03:44:59;17.80;99.90
6538;DHT22;3302;52.508;13.454;2022-08-21T03:47:25;17.70;99.90
6538;DHT22;3302;52.508;13.454;2022-08-21T03:49:51;17.70;99.90
6538;DHT22;3302;52.508;13.454;2022-08-21T03:52:17;17.80;99.90
6538;DHT22;3302;52.508;13.454;2022-08-21T03:54:44;17.70;99.90
6538;DHT22;3302;52.508;13.454;2022-08-21T03:57:10;17.80;99.90
6538;DHT22;3302;52.508;13.454;2022-08-21T03:59:37;17.80;99.90
6538;DHT22;3302;52.508;13.454;2022-08-21T04:02:05;17.80;99.90
6538;DHT22;3302;52.508;13.454;2022-08-21T04:04:33;17.70;99.90
6538;DHT22;3302;52.508;13.454;2022-08-21T04:06:59;17.60;99.90
6538;DHT22;3302;52.508;13.454;2022-08-21T04:09:25;17.60;99.90
6538;DHT22;3302;52.508;13.454;2022-08-21T04:11:51;17.70;99.90
6538;DHT22;3302;52.508;13.454;2022-08-21T04:14:18;17.60;99.90
6538;DHT22;3302;52.508;13.454;2022-08-21T04:16:44;17.60;99.90
6538;DHT22;3302;52.508;13.454;2022-08-21T04:19:12;17.60;99.90
6538;DHT22;3302;52.508;13.454;2022-08-21T04:21:39;17.60;99.90
6538;DHT22;3302;52.508;13.454;2022-08-21T04:24:06;17.60;99.90
6538;DHT22;3302;52.508;13.454;2022-08-21T04:26:34;17.50;99.90
6538;DHT22;3302;52.508;13.454;2022-08-21T04:29:00;17.50;99.90
6538;DHT22;3302;52.508;13.454;2022-08-21T04:31:27;17.50;99.90
6538;DHT22;3302;52.508;13.454;2022-08-21T04:33:54;17.60;99.90
6538;DHT22;3302;52.508;13.454;2022-08-21T04:36:20;17.70;99.90
6538;DHT22;3302;52.508;13.454;2022-08-21T04:38:46;17.60;99.90
6538;DHT22;3302;52.508;13.454;2022-08-21T04:41:13;17.50;99.90
6538;DHT22;3302;52.508;13.454;2022-08-21T04:43:39;17.50;99.90
6538;DHT22;3302;52.508;13.454;2022-08-21T04:46:05;17.60;99.90
6538;DHT22;3302;52.508;13.454;2022-08-21T04:48:31;17.60;99.90
6538;DHT22;3302;52.508;13.454;2022-08-21T04:51:07;17.60;99.90
6538;DHT22;3302;52.508;13.454;2022-08-21T04:53:44;17.60;99.90
6538;DHT22;3302;52.508;13.454;2022-08-21T04:56:14;17.60;99.90
6538;DHT22;3302;52.508;13.454;2022-08-21T04:58:41;17.50;99.90
6538;DHT22;3302;52.508;13.454;2022-08-21T05:01:11;17.50;99.90
6538;DHT22;3302;52.508;13.454;2022-08-21T05:03:39;17.50;99.90
6538;DHT22;3302;52.508;13.454;2022-08-21T05:06:08;17.50;99.90
6538;DHT22;3302;52.508;13.454;2022-08-21T05:08:36;17.60;99.90
6538;DHT22;3302;52.508;13.454;2022-08-21T05:11:02;17.50;99.90
6538;DHT22;3302;52.508;13.454;2022-08-21T05:13:29;17.60;99.90
6538;DHT22;3302;52.508;13.454;2022-08-21T05:15:55;17.50;99.90
6538;DHT22;3302;52.508;13.454;2022-08-21T05:18:21;17.60;99.90
6538;DHT22;3302;52.508;13.454;2022-08-21T05:20:46;17.60;99.90
6538;DHT22;3302;52.508;13.454;2022-08-21T05:23:13;17.50;99.90
6538;DHT22;3302;52.508;13.454;2022-08-21T05:25:40;17.50;99.90
6538;DHT22;3302;52.508;13.454;2022-08-21T05:28:06;17.60;99.90
6538;DHT22;3302;52.508;13.454;2022-08-21T05:30:33;17.60;99.90
6538;DHT22;3302;52.508;13.454;2022-08-21T05:33:01;17.60;99.90
6538;DHT22;3302;52.508;13.454;2022-08-21T05:35:28;17.60;99.90
6538;DHT22;3302;52.508;13.454;2022-08-21T05:37:55;17.60;99.90
6538;DHT22;3302;52.508;13.454;2022-08-21T05:40:21;17.50;99.90
6538;DHT22;3302;52.508;13.454;2022-08-21T05:42:47;17.60;99.90
6538;DHT22;3302;52.508;13.454;2022-08-21T05:45:13;17.70;99.90
6538;DHT22;3302;52.508;13.454;2022-08-21T05:47:39;17.70;99.90
6538;DHT22;3302;52.508;13.454;2022-08-21T05:50:05;17.70;99.90
6538;DHT22;3302;52.508;13.454;2022-08-21T05:52:31;17.70;99.90
6538;DHT22;3302;52.508;13.454;2022-08-21T05:54:57;17.50;99.90
6538;DHT22;3302;52.508;13.454;2022-08-21T05:57:22;17.60;99.90
6538;DHT22;3302;52.508;13.454;2022-08-21T05:59:49;17.80;99.90
6538;DHT22;3302;52.508;13.454;2022-08-21T06:02:18;17.70;99.90
6538;DHT22;3302;52.508;13.454;2022-08-21T06:04:43;17.80;99.90
6538;DHT22;3302;52.508;13.454;2022-08-21T06:07:09;17.80;99.90
6538;DHT22;3302;52.508;13.454;2022-08-21T06:09:36;17.90;99.90
6538;DHT22;3302;52.508;13.454;2022-08-21T06:12:10;17.80;99.90
6538;DHT22;3302;52.508;13.454;2022-08-21T06:14:39;17.80;99.90
6538;DHT22;3302;52.508;13.454;2022-08-21T06:17:07;17.90;99.90
6538;DHT22;3302;52.508;13.454;2022-08-21T06:19:33;17.90;99.90
6538;DHT22;3302;52.508;13.454;2022-08-21T06:21:59;17.90;99.90
6538;DHT22;3302;52.508;13.454;2022-08-21T06:24:25;17.90;99.90
6538;DHT22;3302;52.508;13.454;2022-08-21T06:26:51;17.90;99.90
6538;DHT22;3302;52.508;13.454;2022-08-21T06:29:17;18.00;99.90
6538;DHT22;3302;52.508;13.454;2022-08-21T06:31:43;18.00;99.90
6538;DHT22;3302;52.508;13.454;2022-08-21T06:34:09;18.10;99.90
6538;DHT22;3302;52.508;13.454;2022-08-21T06:36:36;18.10;99.90
6538;DHT22;3302;52.508;13.454;2022-08-21T06:39:03;18.10;99.90
6538;DHT22;3302;52.508;13.454;2022-08-21T06:41:29;18.10;99.90
6538;DHT22;3302;52.508;13.454;2022-08-21T06:43:55;18.20;99.90
6538;DHT22;3302;52.508;13.454;2022-08-21T06:46:22;18.20;99.90
6538;DHT22;3302;52.508;13.454;2022-08-21T06:48:48;18.20;99.90
6538;DHT22;3302;52.508;13.454;2022-08-21T06:51:15;18.30;99.90
6538;DHT22;3302;52.508;13.454;2022-08-21T06:53:41;18.30;99.90
6538;DHT22;3302;52.508;13.454;2022-08-21T06:56:07;18.30;99.90
6538;DHT22;3302;52.508;13.454;2022-08-21T06:58:33;18.20;99.90
6538;DHT22;3302;52.508;13.454;2022-08-21T07:00:59;18.30;99.90
6538;DHT22;3302;52.508;13.454;2022-08-21T07:03:34;18.40;99.90
6538;DHT22;3302;52.508;13.454;2022-08-21T07:06:00;18.50;99.90
6538;DHT22;3302;52.508;13.454;2022-08-21T07:08:27;18.60;99.90
6538;DHT22;3302;52.508;13.454;2022-08-21T07:10:55;18.70;99.90
6538;DHT22;3302;52.508;13.454;2022-08-21T07:13:21;18.70;99.90
6538;DHT22;3302;52.508;13.454;2022-08-21T07:15:47;18.70;99.90
6538;DHT22;3302;52.508;13.454;2022-08-21T07:18:13;18.80;99.90
6538;DHT22;3302;52.508;13.454;2022-08-21T07:20:40;18.80;99.90
6538;DHT22;3302;52.508;13.454;2022-08-21T07:23:10;18.90;99.90
6538;DHT22;3302;52.508;13.454;2022-08-21T07:25:37;18.90;99.90
6538;DHT22;3302;52.508;13.454;2022-08-21T07:28:03;19.00;99.90
6538;DHT22;3302;52.508;13.454;2022-08-21T07:30:29;19.00;99.90
6538;DHT22;3302;52.508;13.454;2022-08-21T07:32:55;19.00;99.90
6538;DHT22;3302;52.508;13.454;2022-08-21T07:35:21;19.00;99.90
6538;DHT22;3302;52.508;13.454;2022-08-21T07:37:47;19.10;99.90
6538;DHT22;3302;52.508;13.454;2022-08-21T07:40:13;19.20;99.90
6538;DHT22;3302;52.508;13.454;2022-08-21T07:42:41;19.20;99.90
6538;DHT22;3302;52.508;13.454;2022-08-21T07:45:08;19.30;99.90
6538;DHT22;3302;52.508;13.454;2022-08-21T07:47:34;19.40;99.90
6538;DHT22;3302;52.508;13.454;2022-08-21T07:49:59;19.60;99.90
6538;DHT22;3302;52.508;13.454;2022-08-21T07:52:25;19.50;99.90
6538;DHT22;3302;52.508;13.454;2022-08-21T07:54:51;19.60;99.90
6538;DHT22;3302;52.508;13.454;2022-08-21T07:57:17;19.60;99.90
6538;DHT22;3302;52.508;13.454;2022-08-21T07:59:42;19.60;99.90
6538;DHT22;3302;52.508;13.454;2022-08-21T08:02:08;19.60;99.90
6538;DHT22;3302;52.508;13.454;2022-08-21T08:04:34;19.60;99.90
6538;DHT22;3302;52.508;13.454;2022-08-21T08:06:59;19.60;99.90
6538;DHT22;3302;52.508;13.454;2022-08-21T08:09:25;19.80;99.90
6538;DHT22;3302;52.508;13.454;2022-08-21T08:11:51;20.00;99.90
6538;DHT22;3302;52.508;13.454;2022-08-21T08:14:17;19.80;99.90
6538;DHT22;3302;52.508;13.454;2022-08-21T08:16:42;19.90;99.90
6538;DHT22;3302;52.508;13.454;2022-08-21T08:19:08;19.90;99.90
6538;DHT22;3302;52.508;13.454;2022-08-21T08:21:34;19.90;99.90
6538;DHT22;3302;52.508;13.454;2022-08-21T08:24:02;20.00;99.90
6538;DHT22;3302;52.508;13.454;2022-08-21T08:26:28;20.20;99.90
6538;DHT22;3302;52.508;13.454;2022-08-21T08:28:53;20.10;99.90
6538;DHT22;3302;52.508;13.454;2022-08-21T08:31:19;20.20;99.90
6538;DHT22;3302;52.508;13.454;2022-08-21T08:33:45;20.20;99.90
6538;DHT22;3302;52.508;13.454;2022-08-21T08:36:16;20.30;99.70
6538;DHT22;3302;52.508;13.454;2022-08-21T08:38:42;20.40;99.90
6538;DHT22;3302;52.508;13.454;2022-08-21T08:41:19;20.60;99.90
6538;DHT22;3302;52.508;13.454;2022-08-21T08:44:00;20.60;99.90
6538;DHT22;3302;52.508;13.454;2022-08-21T08:46:35;20.60;99.70
6538;DHT22;3302;52.508;13.454;2022-08-21T08:49:24;20.40;99.50
6538;DHT22;3302;52.508;13.454;2022-08-21T08:52:05;20.30;99.30
6538;DHT22;3302;52.508;13.454;2022-08-21T08:54:49;20.60;99.90
6538;DHT22;3302;52.508;13.454;2022-08-21T08:57:19;20.70;99.70
6538;DHT22;3302;52.508;13.454;2022-08-21T08:59:50;20.80;98.70
6538;DHT22;3302;52.508;13.454;2022-08-21T09:02:18;20.60;99.20
6538;DHT22;3302;52.508;13.454;2022-08-21T09:04:47;20.70;99.40
6538;DHT22;3302;52.508;13.454;2022-08-21T09:07:25;20.60;98.90
6538;DHT22;3302;52.508;13.454;2022-08-21T09:10:05;20.80;98.50
6538;DHT22;3302;52.508;13.454;2022-08-21T09:13:12;20.70;98.20
6538;DHT22;3302;52.508;13.454;2022-08-21T09:16:05;20.80;98.30
6538;DHT22;3302;52.508;13.454;2022-08-21T09:22:02;20.70;98.70
6538;DHT22;3302;52.508;13.454;2022-08-21T09:25:07;20.90;98.80
6538;DHT22;3302;52.508;13.454;2022-08-21T09:27:34;20.80;98.20
6538;DHT22;3302;52.508;13.454;2022-08-21T09:30:04;20.90;98.10
6538;DHT22;3302;52.508;13.454;2022-08-21T09:32:32;20.80;96.80
6538;DHT22;3302;52.508;13.454;2022-08-21T09:43:22;21.00;96.60
6538;DHT22;3302;52.508;13.454;2022-08-21T09:46:05;21.00;96.70
6538;DHT22;3302;52.508;13.454;2022-08-21T09:48:45;21.00;96.30
6538;DHT22;3302;52.508;13.454;2022-08-21T09:51:21;21.10;95.60
6538;DHT22;3302;52.508;13.454;2022-08-21T09:56:37;21.10;94.50
6538;DHT22;3302;52.508;13.454;2022-08-21T09:59:32;21.20;95.70
6538;DHT22;3302;52.508;13.454;2022-08-21T10:02:00;21.30;95.80
6538;DHT22;3302;52.508;13.454;2022-08-21T10:04:32;21.40;95.40
6538;DHT22;3302;52.508;13.454;2022-08-21T10:07:09;21.40;95.70
6538;DHT22;3302;52.508;13.454;2022-08-21T10:09:36;21.60;94.40
6538;DHT22;3302;52.508;13.454;2022-08-21T10:20:11;21.70;92.00
6538;DHT22;3302;52.508;13.454;2022-08-21T10:29:09;21.70;90.90
6538;DHT22;3302;52.508;13.454;2022-08-21T10:37:35;22.00;91.20
6538;DHT22;3302;52.508;13.454;2022-08-21T10:40:22;22.00;90.90
6538;DHT22;3302;52.508;13.454;2022-08-21T10:48:39;22.20;91.40
6538;DHT22;3302;52.508;13.454;2022-08-21T10:51:26;22.10;90.90
6538;DHT22;3302;52.508;13.454;2022-08-21T10:54:05;22.20;90.70
6538;DHT22;3302;52.508;13.454;2022-08-21T10:56:39;22.00;90.60
6538;DHT22;3302;52.508;13.454;2022-08-21T11:02:20;22.00;90.30
6538;DHT22;3302;52.508;13.454;2022-08-21T11:07:30;22.10;90.10
6538;DHT22;3302;52.508;13.454;2022-08-21T11:10:22;22.20;89.90
6538;DHT22;3302;52.508;13.454;2022-08-21T11:13:04;22.20;89.20
6538;DHT22;3302;52.508;13.454;2022-08-21T11:15:53;22.30;89.70
6538;DHT22;3302;52.508;13.454;2022-08-21T11:18:34;22.30;88.10
6538;DHT22;3302;52.508;13.454;2022-08-21T11:21:08;22.30;87.30
6538;DHT22;3302;52.508;13.454;2022-08-21T11:23:47;22.30;84.60
6538;DHT22;3302;52.508;13.454;2022-08-21T11:26:24;22.50;85.50
6538;DHT22;3302;52.508;13.454;2022-08-21T11:29:05;22.50;81.80
6538;DHT22;3302;52.508;13.454;2022-08-21T11:31:43;22.30;81.90
6538;DHT22;3302;52.508;13.454;2022-08-21T11:34:39;22.40;81.80
6538;DHT22;3302;52.508;13.454;2022-08-21T11:42:46;22.60;76.70
6538;DHT22;3302;52.508;13.454;2022-08-21T11:50:53;23.00;71.10
6538;DHT22;3302;52.508;13.454;2022-08-21T11:56:00;23.00;70.70
6538;DHT22;3302;52.508;13.454;2022-08-21T11:58:42;22.90;70.40
6538;DHT22;3302;52.508;13.454;2022-08-21T12:01:11;23.20;63.70
6538;DHT22;3302;52.508;13.454;2022-08-21T12:03:41;23.00;61.80
6538;DHT22;3302;52.508;13.454;2022-08-21T12:06:13;23.20;62.10
6538;DHT22;3302;52.508;13.454;2022-08-21T12:08:42;23.10;63.70
6538;DHT22;3302;52.508;13.454;2022-08-21T12:16:36;23.20;62.80
6538;DHT22;3302;52.508;13.454;2022-08-21T12:24:43;23.30;58.60
6538;DHT22;3302;52.508;13.454;2022-08-21T12:27:30;23.20;59.50
6538;DHT22;3302;52.508;13.454;2022-08-21T12:30:20;23.20;60.50
6538;DHT22;3302;52.508;13.454;2022-08-21T12:33:02;23.30;60.00
6538;DHT22;3302;52.508;13.454;2022-08-21T12:35:40;23.50;60.00
6538;DHT22;3302;52.508;13.454;2022-08-21T12:38:28;23.60;60.70
6538;DHT22;3302;52.508;13.454;2022-08-21T12:40:58;23.60;57.50
6538;DHT22;3302;52.508;13.454;2022-08-21T12:43:35;23.40;58.80
6538;DHT22;3302;52.508;13.454;2022-08-21T12:46:03;23.70;61.00
6538;DHT22;3302;52.508;13.454;2022-08-21T12:48:35;23.60;61.20
6538;DHT22;3302;52.508;13.454;2022-08-21T12:51:13;23.50;61.50
6538;DHT22;3302;52.508;13.454;2022-08-21T12:53:44;23.30;59.70
6538;DHT22;3302;52.508;13.454;2022-08-21T12:56:14;23.10;61.70
6538;DHT22;3302;52.508;13.454;2022-08-21T12:58:52;23.10;59.70
6538;DHT22;3302;52.508;13.454;2022-08-21T13:01:20;23.30;59.00
6538;DHT22;3302;52.508;13.454;2022-08-21T13:03:50;23.50;60.00
6538;DHT22;3302;52.508;13.454;2022-08-21T13:06:20;23.40;57.60
6538;DHT22;3302;52.508;13.454;2022-08-21T13:08:48;23.60;58.80
6538;DHT22;3302;52.508;13.454;2022-08-21T13:11:18;23.50;55.70
6538;DHT22;3302;52.508;13.454;2022-08-21T13:13:49;23.50;57.20
6538;DHT22;3302;52.508;13.454;2022-08-21T13:16:20;23.40;56.20
6538;DHT22;3302;52.508;13.454;2022-08-21T13:19:00;23.40;57.40
6538;DHT22;3302;52.508;13.454;2022-08-21T13:21:38;23.40;57.80
6538;DHT22;3302;52.508;13.454;2022-08-21T13:24:28;23.40;58.50
6538;DHT22;3302;52.508;13.454;2022-08-21T13:26:55;23.50;58.50
6538;DHT22;3302;52.508;13.454;2022-08-21T13:29:27;23.60;59.20
6538;DHT22;3302;52.508;13.454;2022-08-21T13:31:58;23.50;59.90
6538;DHT22;3302;52.508;13.454;2022-08-21T13:34:35;23.60;59.00
6538;DHT22;3302;52.508;13.454;2022-08-21T13:37:05;23.50;58.90
6538;DHT22;3302;52.508;13.454;2022-08-21T13:39:32;23.70;60.00
6538;DHT22;3302;52.508;13.454;2022-08-21T13:42:00;23.90;60.00
6538;DHT22;3302;52.508;13.454;2022-08-21T13:44:39;24.00;59.90
6538;DHT22;3302;52.508;13.454;2022-08-21T13:47:06;23.70;58.80
6538;DHT22;3302;52.508;13.454;2022-08-21T13:49:38;23.80;58.80
6538;DHT22;3302;52.508;13.454;2022-08-21T13:52:12;23.80;59.70
6538;DHT22;3302;52.508;13.454;2022-08-21T13:54:41;24.10;60.20
6538;DHT22;3302;52.508;13.454;2022-08-21T13:57:18;24.10;58.20
6538;DHT22;3302;52.508;13.454;2022-08-21T13:59:44;24.00;59.80
6538;DHT22;3302;52.508;13.454;2022-08-21T14:02:16;24.00;61.20
6538;DHT22;3302;52.508;13.454;2022-08-21T14:04:53;24.00;60.70
6538;DHT22;3302;52.508;13.454;2022-08-21T14:07:24;24.00;60.20
6538;DHT22;3302;52.508;13.454;2022-08-21T14:09:52;23.90;60.50
6538;DHT22;3302;52.508;13.454;2022-08-21T14:12:40;23.70;61.50
6538;DHT22;3302;52.508;13.454;2022-08-21T14:15:09;23.60;63.70
6538;DHT22;3302;52.508;13.454;2022-08-21T14:17:39;23.70;64.70
6538;DHT22;3302;52.508;13.454;2022-08-21T14:20:12;23.70;64.10
6538;DHT22;3302;52.508;13.454;2022-08-21T14:22:50;23.70;64.80
6538;DHT22;3302;52.508;13.454;2022-08-21T14:30:31;24.10;65.80
6538;DHT22;3302;52.508;13.454;2022-08-21T14:32:59;24.10;65.90
6538;DHT22;3302;52.508;13.454;2022-08-21T14:35:25;23.90;65.20
6538;DHT22;3302;52.508;13.454;2022-08-21T14:37:52;23.80;64.10
6538;DHT22;3302;52.508;13.454;2022-08-21T14:40:20;23.70;64.00
6538;DHT22;3302;52.508;13.454;2022-08-21T14:42:46;23.60;65.20
6538;DHT22;3302;52.508;13.454;2022-08-21T14:45:29;23.50;65.20
6538;DHT22;3302;52.508;13.454;2022-08-21T14:47:57;23.60;66.00
6538;DHT22;3302;52.508;13.454;2022-08-21T14:50:23;23.50;67.00
6538;DHT22;3302;52.508;13.454;2022-08-21T14:52:49;23.50;67.50
6538;DHT22;3302;52.508;13.454;2022-08-21T14:55:16;23.40;67.70
6538;DHT22;3302;52.508;13.454;2022-08-21T14:57:47;23.50;68.40
6538;DHT22;3302;52.508;13.454;2022-08-21T15:00:16;23.50;68.40
6538;DHT22;3302;52.508;13.454;2022-08-21T15:02:43;23.40;68.30
6538;DHT22;3302;52.508;13.454;2022-08-21T15:05:09;23.30;69.10
6538;DHT22;3302;52.508;13.454;2022-08-21T15:07:35;23.30;69.50
6538;DHT22;3302;52.508;13.454;2022-08-21T15:10:02;23.30;70.20
6538;DHT22;3302;52.508;13.454;2022-08-21T15:12:29;23.20;71.60
6538;DHT22;3302;52.508;13.454;2022-08-21T15:14:54;23.20;71.90
6538;DHT22;3302;52.508;13.454;2022-08-21T15:17:20;23.20;70.70
6538;DHT22;3302;52.508;13.454;2022-08-21T15:19:46;23.20;71.70
6538;DHT22;3302;52.508;13.454;2022-08-21T15:22:12;23.10;72.70
6538;DHT22;3302;52.508;13.454;2022-08-21T15:24:38;23.20;73.30
6538;DHT22;3302;52.508;13.454;2022-08-21T15:27:06;23.20;73.50
6538;DHT22;3302;52.508;13.454;2022-08-21T15:29:32;23.20;73.60
6538;DHT22;3302;52.508;13.454;2022-08-21T15:32:24;23.20;72.80
6538;DHT22;3302;52.508;13.454;2022-08-21T15:34:50;23.20;73.70
6538;DHT22;3302;52.508;13.454;2022-08-21T15:37:17;23.20;72.30
6538;DHT22;3302;52.508;13.454;2022-08-21T15:39:42;23.10;73.30
6538;DHT22;3302;52.508;13.454;2022-08-21T15:42:10;23.10;74.50
6538;DHT22;3302;52.508;13.454;2022-08-21T15:44:37;23.20;75.30
6538;DHT22;3302;52.508;13.454;2022-08-21T15:47:13;23.20;75.60
6538;DHT22;3302;52.508;13.454;2022-08-21T15:49:40;23.30;74.30
6538;DHT22;3302;52.508;13.454;2022-08-21T15:52:08;23.50;73.50
6538;DHT22;3302;52.508;13.454;2022-08-21T15:54:34;23.60;73.40
6538;DHT22;3302;52.508;13.454;2022-08-21T15:57:00;23.60;73.30
6538;DHT22;3302;52.508;13.454;2022-08-21T15:59:25;23.50;73.60
6538;DHT22;3302;52.508;13.454;2022-08-21T16:01:52;23.40;72.60
6538;DHT22;3302;52.508;13.454;2022-08-21T16:04:22;23.30;73.00
6538;DHT22;3302;52.508;13.454;2022-08-21T16:06:49;23.20;73.50
6538;DHT22;3302;52.508;13.454;2022-08-21T16:09:14;23.00;72.90
6538;DHT22;3302;52.508;13.454;2022-08-21T16:11:42;23.10;74.70
6538;DHT22;3302;52.508;13.454;2022-08-21T16:14:08;23.10;73.60
6538;DHT22;3302;52.508;13.454;2022-08-21T16:16:36;23.00;73.40
6538;DHT22;3302;52.508;13.454;2022-08-21T16:19:03;23.10;73.60
6538;DHT22;3302;52.508;13.454;2022-08-21T16:21:32;23.10;73.40
6538;DHT22;3302;52.508;13.454;2022-08-21T16:23:58;23.10;74.30
6538;DHT22;3302;52.508;13.454;2022-08-21T16:26:24;23.10;72.70
6538;DHT22;3302;52.508;13.454;2022-08-21T16:28:52;23.30;72.30
6538;DHT22;3302;52.508;13.454;2022-08-21T16:31:19;23.30;71.70
6538;DHT22;3302;52.508;13.454;2022-08-21T16:33:50;23.30;71.40
6538;DHT22;3302;52.508;13.454;2022-08-21T16:36:17;23.20;72.30
6538;DHT22;3302;52.508;13.454;2022-08-21T16:38:43;23.10;74.50
6538;DHT22;3302;52.508;13.454;2022-08-21T16:41:11;23.10;72.70
6538;DHT22;3302;52.508;13.454;2022-08-21T16:43:40;23.10;74.40
6538;DHT22;3302;52.508;13.454;2022-08-21T16:46:07;23.10;74.80
6538;DHT22;3302;52.508;13.454;2022-08-21T16:48:34;23.10;71.90
6538;DHT22;3302;52.508;13.454;2022-08-21T16:50:59;23.00;72.70
6538;DHT22;3302;52.508;13.454;2022-08-21T16:53:25;22.90;73.40
6538;DHT22;3302;52.508;13.454;2022-08-21T16:55:51;22.90;73.50
6538;DHT22;3302;52.508;13.454;2022-08-21T16:58:34;22.90;75.80
6538;DHT22;3302;52.508;13.454;2022-08-21T17:01:05;22.90;75.10
6538;DHT22;3302;52.508;13.454;2022-08-21T17:03:35;22.90;74.50
6538;DHT22;3302;52.508;13.454;2022-08-21T17:06:02;22.90;74.30
6538;DHT22;3302;52.508;13.454;2022-08-21T17:08:28;22.90;74.80
6538;DHT22;3302;52.508;13.454;2022-08-21T17:10:54;22.90;75.80
6538;DHT22;3302;52.508;13.454;2022-08-21T17:13:20;23.00;75.40
6538;DHT22;3302;52.508;13.454;2022-08-21T17:15:46;22.80;76.60